Time;durP1;ratioP1;P1;durP2;ratioP2;P2;SDS_P1;SDS_P2;PMS_P1;PMS_P2;Temp;Humidity;BMP_temperature;BMP_pressure;BME280_temperature;BME280_humidity;BME280_pressure;Samples;Min_cycle;Max_cycle;Signal;HPM_P1;HPM_P2
2022/07/18 00:01:35;;;;;;;17.02;9.70;;;;;;;;;;5032053;28;20053;-63
2022/07/18 00:04:01;;;;;;;17.00;9.30;;;;;;;;;;4666364;28;9999938;-59
2022/07/18 00:06:27;;;;;;;16.75;9.50;;;;;;;;;;5010615;28;20022;-61
2022/07/18 00:08:53;;;;;;;15.18;9.38;;;;;;;;;;5010662;28;20153;-61
2022/07/18 00:11:19;;;;;;;16.48;9.68;;;;;;;;;;5011308;28;20047;-54
2022/07/18 00:13:45;;;;;;;18.63;9.30;;;;;;;;;;5011237;28;20541;-54
2022/07/18 00:16:11;;;;;;;17.75;10.10;;;;;;;;;;5011195;28;20109;-56
2022/07/18 00:18:37;;;;;;;17.95;10.20;;;;;;;;;;5011058;28;20149;-52
2022/07/18 00:21:03;;;;;;;15.88;9.60;;;;;;;;;;5012838;28;20042;-53
2022/07/18 00:23:29;;;;;;;14.38;9.00;;;;;;;;;;5013064;28;20026;-55
2022/07/18 00:25:55;;;;;;;15.00;9.68;;;;;;;;;;5012938;28;20028;-54
2022/07/18 00:28:21;;;;;;;16.80;10.10;;;;;;;;;;5012320;28;20033;-56
2022/07/18 00:30:48;;;;;;;17.50;10.10;;;;;;;;;;5011545;28;20022;-50
2022/07/18 00:33:14;;;;;;;17.42;10.30;;;;;;;;;;5012675;28;20102;-53
2022/07/18 00:35:39;;;;;;;16.13;9.90;;;;;;;;;;5012706;28;20101;-51
2022/07/18 00:38:06;;;;;;;17.10;10.23;;;;;;;;;;5012114;28;20488;-54
2022/07/18 00:40:32;;;;;;;16.80;9.98;;;;;;;;;;5012312;28;20025;-56
2022/07/18 00:42:58;;;;;;;17.00;10.13;;;;;;;;;;5012377;28;20405;-52
2022/07/18 00:45:24;;;;;;;16.55;9.57;;;;;;;;;;5011174;28;20026;-54
2022/07/18 00:47:51;;;;;;;17.80;9.70;;;;;;;;;;5013387;28;20064;-55
2022/07/18 00:50:17;;;;;;;15.82;9.90;;;;;;;;;;5012718;28;20026;-55
2022/07/18 00:52:43;;;;;;;15.70;9.32;;;;;;;;;;5011474;28;20076;-54
2022/07/18 00:55:09;;;;;;;16.17;9.45;;;;;;;;;;5012244;28;20402;-55
2022/07/18 00:57:36;;;;;;;15.63;9.70;;;;;;;;;;5010606;28;20057;-56
2022/07/18 01:02:47;;;;;;;16.90;10.00;;;;;;;;;;5012264;28;20040;-57
2022/07/18 01:05:13;;;;;;;17.38;10.20;;;;;;;;;;5012272;28;20030;-55
2022/07/18 01:07:39;;;;;;;16.90;10.73;;;;;;;;;;5011969;28;20025;-54
2022/07/18 01:10:05;;;;;;;18.52;11.27;;;;;;;;;;5012245;28;20029;-54
2022/07/18 01:12:31;;;;;;;17.85;10.10;;;;;;;;;;5012333;28;20057;-53
2022/07/18 01:14:58;;;;;;;16.88;10.05;;;;;;;;;;5012105;28;20117;-54
2022/07/18 01:17:24;;;;;;;15.00;9.55;;;;;;;;;;5011982;28;20032;-52
2022/07/18 01:19:50;;;;;;;15.60;10.10;;;;;;;;;;5011180;28;20410;-52
2022/07/18 01:22:18;;;;;;;16.20;10.07;;;;;;;;;;5010911;28;20022;-54
2022/07/18 01:24:44;;;;;;;16.13;9.57;;;;;;;;;;5012005;28;20111;-56
2022/07/18 01:27:17;;;;;;;16.48;9.60;;;;;;;;;;5011844;28;20292;-52
2022/07/18 01:29:44;;;;;;;17.63;10.07;;;;;;;;;;5012008;28;20375;-53
2022/07/18 01:32:10;;;;;;;15.60;10.75;;;;;;;;;;5010775;28;20099;-54
2022/07/18 01:34:36;;;;;;;15.15;10.00;;;;;;;;;;5010915;28;20026;-54
2022/07/18 01:37:03;;;;;;;16.17;9.80;;;;;;;;;;5011916;28;20549;-55
2022/07/18 01:39:29;;;;;;;16.17;10.20;;;;;;;;;;5011647;28;20041;-53
2022/07/18 01:41:56;;;;;;;19.75;9.82;;;;;;;;;;5012113;28;20371;-54
2022/07/18 01:44:22;;;;;;;16.08;9.75;;;;;;;;;;5011980;28;20018;-54
2022/07/18 01:46:48;;;;;;;16.30;10.13;;;;;;;;;;5011991;28;20026;-56
2022/07/18 01:49:14;;;;;;;15.30;9.90;;;;;;;;;;5010351;28;20053;-56
2022/07/18 01:51:44;;;;;;;15.73;9.70;;;;;;;;;;5011961;28;20509;-59
2022/07/18 01:54:10;;;;;;;16.05;10.65;;;;;;;;;;5011899;28;20029;-55
2022/07/18 01:56:36;;;;;;;16.88;10.68;;;;;;;;;;5011793;28;20033;-54
2022/07/18 01:59:03;;;;;;;15.63;10.52;;;;;;;;;;5010307;28;20021;-55
2022/07/18 02:01:29;;;;;;;16.48;10.20;;;;;;;;;;5011851;28;20126;-57
2022/07/18 02:03:55;;;;;;;16.00;10.13;;;;;;;;;;5013348;28;20457;-53
2022/07/18 02:06:21;;;;;;;16.77;10.27;;;;;;;;;;5015238;28;20029;-51
2022/07/18 02:08:47;;;;;;;15.75;9.98;;;;;;;;;;5014954;28;20533;-55
2022/07/18 02:11:13;;;;;;;16.17;10.23;;;;;;;;;;5015254;28;20034;-57
2022/07/18 02:13:39;;;;;;;15.75;10.25;;;;;;;;;;5015333;28;20106;-53
2022/07/18 02:16:05;;;;;;;17.40;10.30;;;;;;;;;;5013821;28;20056;-53
2022/07/18 02:18:32;;;;;;;15.63;10.07;;;;;;;;;;5014903;28;20022;-56
2022/07/18 02:21:01;;;;;;;17.52;10.25;;;;;;;;;;5014991;28;20049;-55
2022/07/18 02:23:27;;;;;;;17.50;10.50;;;;;;;;;;5015057;28;20108;-52
2022/07/18 02:25:53;;;;;;;15.55;10.00;;;;;;;;;;5014883;28;20022;-52
2022/07/18 02:28:19;;;;;;;15.98;9.73;;;;;;;;;;5014602;28;20033;-52
2022/07/18 02:30:45;;;;;;;15.38;9.90;;;;;;;;;;5015014;28;20030;-53
2022/07/18 02:33:11;;;;;;;15.82;9.98;;;;;;;;;;5014835;28;20157;-53
2022/07/18 02:35:37;;;;;;;16.77;10.27;;;;;;;;;;5014694;28;20076;-51
2022/07/18 02:38:03;;;;;;;15.80;9.65;;;;;;;;;;5014455;28;20163;-57
2022/07/18 02:40:29;;;;;;;17.40;10.00;;;;;;;;;;5014763;28;20045;-50
2022/07/18 02:42:55;;;;;;;16.95;9.93;;;;;;;;;;5014571;28;20030;-53
2022/07/18 02:45:21;;;;;;;16.63;10.07;;;;;;;;;;5014560;28;20026;-57
2022/07/18 02:47:47;;;;;;;17.70;10.07;;;;;;;;;;5013031;28;20478;-57
2022/07/18 02:50:13;;;;;;;18.92;10.32;;;;;;;;;;5014484;28;20111;-50
2022/07/18 02:52:40;;;;;;;15.68;10.20;;;;;;;;;;5014655;28;20096;-54
2022/07/18 02:55:06;;;;;;;15.48;10.25;;;;;;;;;;5014370;28;20426;-57
2022/07/18 02:57:32;;;;;;;17.00;10.23;;;;;;;;;;5014159;28;20022;-56
2022/07/18 02:59:58;;;;;;;16.58;10.10;;;;;;;;;;5014308;28;20494;-55
2022/07/18 03:02:24;;;;;;;17.35;10.00;;;;;;;;;;5014192;28;20030;-57
2022/07/18 03:04:50;;;;;;;19.30;10.65;;;;;;;;;;5014133;28;20033;-57
2022/07/18 03:07:16;;;;;;;16.63;10.65;;;;;;;;;;5012486;28;20030;-54
2022/07/18 03:09:43;;;;;;;17.55;11.10;;;;;;;;;;5014098;28;20540;-56
2022/07/18 03:12:09;;;;;;;16.75;10.65;;;;;;;;;;5014117;28;20037;-57
2022/07/18 03:14:35;;;;;;;16.58;10.27;;;;;;;;;;5012260;28;20029;-58
2022/07/18 03:17:01;;;;;;;17.52;10.65;;;;;;;;;;5013556;28;20434;-55
2022/07/18 03:19:26;;;;;;;16.48;10.80;;;;;;;;;;5013974;28;20036;-55
2022/07/18 03:21:52;;;;;;;16.23;10.40;;;;;;;;;;5013902;28;20034;-55
2022/07/18 03:24:18;;;;;;;16.15;9.95;;;;;;;;;;5014100;28;20018;-56
2022/07/18 03:26:45;;;;;;;16.17;10.57;;;;;;;;;;5012658;28;20107;-52
2022/07/18 03:29:11;;;;;;;16.48;10.70;;;;;;;;;;5013426;28;20073;-55
2022/07/18 03:31:38;;;;;;;17.05;10.73;;;;;;;;;;5013728;28;20048;-56
2022/07/18 03:34:04;;;;;;;18.27;10.98;;;;;;;;;;5013534;28;20022;-54
2022/07/18 03:36:30;;;;;;;16.60;10.95;;;;;;;;;;5013453;28;20026;-51
2022/07/18 03:38:56;;;;;;;16.23;10.20;;;;;;;;;;5011975;28;20450;-53
2022/07/18 03:41:22;;;;;;;16.00;9.98;;;;;;;;;;5013825;28;20029;-50
2022/07/18 03:43:48;;;;;;;17.38;10.23;;;;;;;;;;5013921;28;20087;-55
2022/07/18 03:46:14;;;;;;;17.88;10.57;;;;;;;;;;5014020;28;20029;-54
2022/07/18 03:48:40;;;;;;;17.58;9.70;;;;;;;;;;5013661;28;20148;-50
2022/07/18 03:51:06;;;;;;;20.63;9.38;;;;;;;;;;5014324;28;20046;-50
2022/07/18 03:53:32;;;;;;;18.30;9.65;;;;;;;;;;5014618;28;20033;-54
2022/07/18 03:55:59;;;;;;;15.68;8.75;;;;;;;;;;5013621;28;20030;-55
2022/07/18 03:58:25;;;;;;;16.30;9.57;;;;;;;;;;5012993;28;20032;-53
2022/07/18 04:00:51;;;;;;;17.17;9.60;;;;;;;;;;5013408;28;20034;-55
2022/07/18 04:03:17;;;;;;;16.38;10.55;;;;;;;;;;5012887;28;20037;-53
2022/07/18 04:05:43;;;;;;;18.88;10.30;;;;;;;;;;5012841;28;20045;-52
2022/07/18 04:08:10;;;;;;;18.95;11.20;;;;;;;;;;5012734;28;20099;-49
2022/07/18 04:10:39;;;;;;;16.88;10.75;;;;;;;;;;5013060;28;20040;-53
2022/07/18 04:13:06;;;;;;;18.75;11.07;;;;;;;;;;5012983;28;20038;-52
2022/07/18 04:15:32;;;;;;;18.58;10.55;;;;;;;;;;5013133;28;20065;-55
2022/07/18 04:17:58;;;;;;;16.40;10.50;;;;;;;;;;5012540;28;20030;-53
2022/07/18 04:20:24;;;;;;;18.70;10.90;;;;;;;;;;5014330;28;20050;-51
2022/07/18 04:22:54;;;;;;;18.75;12.25;;;;;;;;;;5023198;28;20041;-56
2022/07/18 04:25:22;;;;;;;16.90;10.50;;;;;;;;;;5022564;28;20117;-59
2022/07/18 04:27:48;;;;;;;16.80;10.63;;;;;;;;;;5024304;28;20441;-51
2022/07/18 04:30:15;;;;;;;20.40;11.25;;;;;;;;;;5023896;28;20532;-55
2022/07/18 04:32:41;;;;;;;17.13;10.73;;;;;;;;;;5022804;28;20072;-55
2022/07/18 04:35:08;;;;;;;16.88;10.60;;;;;;;;;;5020274;28;20030;-52
2022/07/18 04:37:34;;;;;;;19.20;11.43;;;;;;;;;;5020096;28;20034;-56
2022/07/18 04:40:00;;;;;;;17.13;11.07;;;;;;;;;;5019211;28;20426;-52
2022/07/18 04:42:26;;;;;;;16.70;11.15;;;;;;;;;;5019016;28;20030;-56
2022/07/18 04:44:52;;;;;;;18.60;11.70;;;;;;;;;;5019166;28;20037;-52
2022/07/18 04:47:18;;;;;;;16.40;12.02;;;;;;;;;;5017885;28;20029;-50
2022/07/18 04:49:44;;;;;;;19.25;12.15;;;;;;;;;;5015263;28;20030;-51
2022/07/18 04:52:10;;;;;;;20.50;13.13;;;;;;;;;;5019521;28;20026;-53
2022/07/18 04:54:36;;;;;;;20.98;12.73;;;;;;;;;;5019380;28;20124;-52
2022/07/18 04:57:02;;;;;;;21.25;12.55;;;;;;;;;;5018841;28;20053;-50
2022/07/18 04:59:28;;;;;;;27.65;13.35;;;;;;;;;;5017381;28;20057;-52
2022/07/18 05:01:54;;;;;;;26.02;12.68;;;;;;;;;;5018525;28;20398;-54
2022/07/18 05:04:20;;;;;;;20.17;11.57;;;;;;;;;;5017390;28;20030;-54
2022/07/18 05:06:46;;;;;;;24.60;12.18;;;;;;;;;;5016665;28;20033;-55
2022/07/18 05:09:12;;;;;;;23.08;12.48;;;;;;;;;;5014034;28;20022;-50
2022/07/18 05:11:39;;;;;;;19.85;11.50;;;;;;;;;;5015118;28;20401;-52
2022/07/18 05:14:05;;;;;;;18.23;11.98;;;;;;;;;;5015296;28;20482;-51
2022/07/18 05:16:31;;;;;;;18.60;11.07;;;;;;;;;;5015256;28;20029;-50
2022/07/18 05:18:57;;;;;;;17.33;11.13;;;;;;;;;;5015147;28;20137;-50
2022/07/18 05:21:23;;;;;;;19.00;11.98;;;;;;;;;;5016624;28;20018;-50
2022/07/18 05:23:49;;;;;;;16.70;11.30;;;;;;;;;;5013858;28;20113;-51
2022/07/18 05:26:15;;;;;;;16.52;11.25;;;;;;;;;;5014470;28;20191;-52
2022/07/18 05:28:41;;;;;;;19.48;11.48;;;;;;;;;;5013805;28;20172;-50
2022/07/18 05:31:07;;;;;;;17.75;11.70;;;;;;;;;;5016112;28;20053;-50
2022/07/18 05:33:33;;;;;;;18.35;12.15;;;;;;;;;;5015255;28;20030;-52
2022/07/18 05:35:59;;;;;;;19.30;11.68;;;;;;;;;;5014535;28;20030;-51
2022/07/18 05:38:25;;;;;;;19.38;12.93;;;;;;;;;;5013284;28;20030;-52
2022/07/18 05:40:51;;;;;;;20.35;12.75;;;;;;;;;;5015717;28;20030;-52
2022/07/18 05:43:17;;;;;;;17.48;11.80;;;;;;;;;;5015633;28;20091;-52
2022/07/18 05:45:43;;;;;;;19.23;12.82;;;;;;;;;;5015713;28;20092;-54
2022/07/18 05:48:09;;;;;;;20.88;13.63;;;;;;;;;;5015089;28;20096;-55
2022/07/18 05:50:35;;;;;;;18.73;11.85;;;;;;;;;;5015296;28;20049;-49
2022/07/18 05:53:01;;;;;;;18.30;11.35;;;;;;;;;;5015078;28;20092;-51
2022/07/18 05:55:27;;;;;;;17.27;12.65;;;;;;;;;;5014871;28;20125;-50
2022/07/18 05:57:53;;;;;;;20.75;12.07;;;;;;;;;;5013154;28;20026;-53
2022/07/18 06:00:20;;;;;;;17.10;11.65;;;;;;;;;;5015453;28;20052;-53
2022/07/18 06:02:47;;;;;;;17.55;11.18;;;;;;;;;;5015390;28;20026;-53
2022/07/18 06:05:13;;;;;;;17.35;11.18;;;;;;;;;;5015262;28;20026;-51
2022/07/18 06:07:39;;;;;;;18.52;11.98;;;;;;;;;;5014811;28;20018;-51
2022/07/18 06:10:06;;;;;;;16.00;11.13;;;;;;;;;;5014927;28;20024;-52
2022/07/18 06:12:32;;;;;;;16.88;11.70;;;;;;;;;;5014792;28;20053;-57
2022/07/18 06:14:58;;;;;;;20.38;10.73;;;;;;;;;;5014603;28;20026;-52
2022/07/18 06:17:24;;;;;;;17.33;11.07;;;;;;;;;;5014833;28;20054;-56
2022/07/18 06:19:51;;;;;;;18.92;11.35;;;;;;;;;;5014559;28;20030;-52
2022/07/18 06:22:17;;;;;;;17.52;11.70;;;;;;;;;;5014276;28;20077;-52
2022/07/18 06:24:43;;;;;;;16.10;10.70;;;;;;;;;;5014557;28;20430;-53
2022/07/18 06:27:09;;;;;;;16.30;10.77;;;;;;;;;;5014698;28;20080;-49
2022/07/18 06:29:35;;;;;;;15.88;11.18;;;;;;;;;;5014716;28;20038;-53
2022/07/18 06:32:01;;;;;;;18.75;11.60;;;;;;;;;;5014683;28;20109;-52
2022/07/18 06:34:27;;;;;;;16.33;11.00;;;;;;;;;;5014768;28;20034;-53
2022/07/18 06:36:53;;;;;;;17.88;11.10;;;;;;;;;;5014751;28;20492;-55
2022/07/18 06:39:19;;;;;;;17.83;11.35;;;;;;;;;;5014427;28;20026;-53
2022/07/18 06:41:46;;;;;;;16.33;11.65;;;;;;;;;;5014725;28;20026;-54
2022/07/18 06:44:12;;;;;;;16.58;11.52;;;;;;;;;;5014353;28;20080;-52
2022/07/18 06:46:38;;;;;;;16.75;11.52;;;;;;;;;;5014109;28;20033;-55
2022/07/18 06:49:05;;;;;;;17.17;11.45;;;;;;;;;;5014030;28;20087;-56
2022/07/18 06:51:31;;;;;;;16.05;11.20;;;;;;;;;;5014336;28;20036;-54
2022/07/18 06:53:57;;;;;;;16.90;11.02;;;;;;;;;;5014186;28;20026;-52
2022/07/18 06:56:25;;;;;;;15.88;11.23;;;;;;;;;;5014160;28;20025;-57
2022/07/18 06:58:51;;;;;;;17.75;11.48;;;;;;;;;;5013934;28;20430;-56
2022/07/18 07:01:18;;;;;;;16.60;11.10;;;;;;;;;;5013178;28;20022;-57
2022/07/18 07:03:44;;;;;;;19.42;11.40;;;;;;;;;;5014079;28;20032;-54
2022/07/18 07:06:10;;;;;;;19.35;11.40;;;;;;;;;;5013868;28;20450;-48
2022/07/18 07:08:36;;;;;;;19.63;11.48;;;;;;;;;;5013724;28;20113;-53
2022/07/18 07:11:02;;;;;;;15.50;10.70;;;;;;;;;;5013676;28;20104;-54
2022/07/18 07:13:28;;;;;;;16.08;10.80;;;;;;;;;;5013420;28;20030;-53
2022/07/18 07:15:54;;;;;;;18.27;11.07;;;;;;;;;;5012221;28;20036;-52
2022/07/18 07:18:20;;;;;;;17.45;11.02;;;;;;;;;;5013320;28;20037;-54
2022/07/18 07:20:46;;;;;;;20.92;12.40;;;;;;;;;;5013658;28;20029;-53
2022/07/18 07:23:13;;;;;;;16.20;11.45;;;;;;;;;;5013818;28;20426;-55
2022/07/18 07:25:39;;;;;;;16.05;10.55;;;;;;;;;;5013580;28;20045;-52
2022/07/18 07:28:06;;;;;;;15.77;11.00;;;;;;;;;;5013070;28;20038;-54
2022/07/18 07:30:32;;;;;;;22.80;12.10;;;;;;;;;;5013666;28;20052;-52
2022/07/18 07:32:59;;;;;;;18.85;11.63;;;;;;;;;;5013560;28;20034;-55
2022/07/18 07:35:25;;;;;;;17.88;11.32;;;;;;;;;;5013652;28;20033;-57
2022/07/18 07:37:53;;;;;;;18.00;11.23;;;;;;;;;;5011876;28;20065;-54
2022/07/18 07:40:19;;;;;;;16.25;11.27;;;;;;;;;;5013378;28;20026;-53
2022/07/18 07:42:45;;;;;;;18.75;11.18;;;;;;;;;;5012026;28;20036;-55
2022/07/18 07:45:13;;;;;;;18.55;11.13;;;;;;;;;;5013394;28;20135;-55
2022/07/18 07:47:39;;;;;;;17.73;10.95;;;;;;;;;;5011674;28;20022;-50
2022/07/18 07:50:06;;;;;;;17.35;10.57;;;;;;;;;;5012959;28;20113;-55
2022/07/18 07:52:32;;;;;;;16.77;10.77;;;;;;;;;;5012949;28;20466;-54
2022/07/18 07:54:58;;;;;;;17.90;11.63;;;;;;;;;;5012757;28;20427;-53
2022/07/18 07:57:25;;;;;;;15.63;10.82;;;;;;;;;;5012813;28;20398;-55
2022/07/18 07:59:51;;;;;;;15.73;11.38;;;;;;;;;;5013070;28;20559;-51
2022/07/18 08:02:18;;;;;;;17.38;11.50;;;;;;;;;;5012111;28;20463;-55
2022/07/18 08:04:44;;;;;;;16.23;11.38;;;;;;;;;;5012891;28;20513;-59
2022/07/18 08:07:11;;;;;;;15.98;11.25;;;;;;;;;;5011710;28;20026;-53
2022/07/18 08:09:37;;;;;;;18.02;10.68;;;;;;;;;;5012785;28;20030;-54
2022/07/18 08:12:03;;;;;;;15.80;11.20;;;;;;;;;;5013394;28;20155;-53
2022/07/18 08:14:29;;;;;;;16.40;11.20;;;;;;;;;;5013223;28;20029;-55
2022/07/18 08:16:55;;;;;;;16.13;10.90;;;;;;;;;;5012897;28;20378;-55
2022/07/18 08:19:21;;;;;;;17.33;11.15;;;;;;;;;;5010502;28;20474;-54
2022/07/18 08:21:47;;;;;;;17.92;11.30;;;;;;;;;;5012360;28;20022;-54
2022/07/18 08:24:13;;;;;;;17.33;11.40;;;;;;;;;;5012284;28;20033;-55
2022/07/18 08:26:39;;;;;;;17.10;11.15;;;;;;;;;;5012391;28;20554;-54
2022/07/18 08:29:06;;;;;;;16.98;11.30;;;;;;;;;;5011964;28;20120;-55
2022/07/18 08:31:32;;;;;;;16.70;11.02;;;;;;;;;;5012099;28;20080;-55
2022/07/18 08:33:58;;;;;;;17.35;11.02;;;;;;;;;;5012496;28;20022;-51
2022/07/18 08:36:24;;;;;;;15.93;10.85;;;;;;;;;;5012584;28;20339;-50
2022/07/18 08:38:51;;;;;;;16.02;10.93;;;;;;;;;;5011929;28;20026;-51
2022/07/18 08:41:17;;;;;;;16.13;10.60;;;;;;;;;;5012300;28;20029;-54
2022/07/18 08:43:47;;;;;;;16.92;11.23;;;;;;;;;;4670792;28;10000178;-59
2022/07/18 08:46:13;;;;;;;18.80;11.20;;;;;;;;;;5022206;28;20104;-56
2022/07/18 08:48:42;;;;;;;16.17;11.00;;;;;;;;;;5009548;28;20085;-54
2022/07/18 08:51:09;;;;;;;17.95;11.60;;;;;;;;;;5015215;28;20144;-57
2022/07/18 08:53:37;;;;;;;17.88;11.30;;;;;;;;;;5029180;28;20053;-55
2022/07/18 08:56:03;;;;;;;16.88;11.30;;;;;;;;;;5029298;28;20497;-54
2022/07/18 08:58:30;;;;;;;16.02;11.10;;;;;;;;;;5028951;28;20635;-55
2022/07/18 09:00:58;;;;;;;16.58;10.90;;;;;;;;;;5028888;28;20119;-56
2022/07/18 09:03:24;;;;;;;16.65;11.57;;;;;;;;;;5029287;28;20026;-54
2022/07/18 09:06:04;;;;;;;17.38;11.70;;;;;;;;;;5028992;28;20679;-57
2022/07/18 09:08:30;;;;;;;17.55;11.55;;;;;;;;;;5028695;28;20168;-56
2022/07/18 09:10:57;;;;;;;16.23;11.10;;;;;;;;;;5028801;28;20026;-56
2022/07/18 09:13:43;;;;;;;16.27;11.18;;;;;;;;;;5029646;28;20041;-55
2022/07/18 09:16:11;;;;;;;18.92;11.27;;;;;;;;;;5032242;28;20660;-53
2022/07/18 09:18:38;;;;;;;15.82;11.10;;;;;;;;;;5013147;28;20018;-55
2022/07/18 09:21:06;;;;;;;17.20;11.02;;;;;;;;;;5028234;28;20140;-56
2022/07/18 09:23:33;;;;;;;17.85;11.10;;;;;;;;;;5032585;28;20036;-56
2022/07/18 09:25:59;;;;;;;16.73;11.02;;;;;;;;;;5032361;28;20037;-53
2022/07/18 09:28:26;;;;;;;17.17;11.13;;;;;;;;;;5031768;28;20044;-58
2022/07/18 09:30:53;;;;;;;19.63;11.65;;;;;;;;;;5031485;28;20037;-55
2022/07/18 09:33:21;;;;;;;15.93;10.55;;;;;;;;;;5032735;28;20033;-54
2022/07/18 09:35:48;;;;;;;18.58;11.13;;;;;;;;;;5032653;28;20025;-53
2022/07/18 09:38:15;;;;;;;16.38;11.02;;;;;;;;;;5032461;28;20033;-55
2022/07/18 09:40:43;;;;;;;18.42;11.38;;;;;;;;;;5033220;28;20453;-55
2022/07/18 09:43:10;;;;;;;17.60;11.50;;;;;;;;;;5033312;28;20044;-54
2022/07/18 09:45:41;;;;;;;15.90;11.18;;;;;;;;;;5033979;28;20079;-55
2022/07/18 09:48:11;;;;;;;15.20;10.90;;;;;;;;;;5034217;28;20025;-51
2022/07/18 09:50:40;;;;;;;18.08;10.90;;;;;;;;;;5035107;28;20029;-56
2022/07/18 09:53:15;;;;;;;16.48;10.98;;;;;;;;;;5035249;28;20021;-56
2022/07/18 09:55:45;;;;;;;14.95;10.82;;;;;;;;;;5035010;28;20048;-55
2022/07/18 09:58:12;;;;;;;17.38;10.70;;;;;;;;;;5034546;28;20033;-54
2022/07/18 10:00:39;;;;;;;16.23;10.20;;;;;;;;;;5034913;28;20025;-55
2022/07/18 10:03:06;;;;;;;15.37;10.07;;;;;;;;;;5034783;28;20366;-55
2022/07/18 10:05:34;;;;;;;14.75;10.55;;;;;;;;;;5032514;28;20052;-55
2022/07/18 10:08:01;;;;;;;16.17;11.20;;;;;;;;;;5022805;28;20123;-53
2022/07/18 10:10:27;;;;;;;15.38;10.90;;;;;;;;;;5028832;28;20053;-49
2022/07/18 10:12:58;;;;;;;16.40;11.32;;;;;;;;;;5034729;28;20375;-57
2022/07/18 10:15:25;;;;;;;15.35;10.82;;;;;;;;;;5015058;28;20034;-51
2022/07/18 10:17:51;;;;;;;15.52;11.00;;;;;;;;;;5026926;28;20163;-51
2022/07/18 10:20:17;;;;;;;16.60;10.90;;;;;;;;;;5033614;28;20029;-53
2022/07/18 10:22:45;;;;;;;15.27;10.60;;;;;;;;;;5024771;28;20105;-51
2022/07/18 10:25:12;;;;;;;16.65;10.60;;;;;;;;;;5014438;28;20026;-51
2022/07/18 10:27:52;;;;;;;17.90;11.05;;;;;;;;;;5014456;28;20105;-57
2022/07/18 10:30:19;;;;;;;16.55;11.13;;;;;;;;;;5012838;28;20123;-49
2022/07/18 10:32:45;;;;;;;14.73;10.73;;;;;;;;;;5014592;28;20042;-51
2022/07/18 10:35:15;;;;;;;16.02;11.65;;;;;;;;;;5015155;28;20288;-53
2022/07/18 10:37:41;;;;;;;16.85;11.07;;;;;;;;;;5013854;28;20029;-52
2022/07/18 10:40:27;;;;;;;15.75;11.90;;;;;;;;;;5026860;28;20029;-55
2022/07/18 10:43:12;;;;;;;16.45;11.68;;;;;;;;;;5033878;28;20124;-53
2022/07/18 10:45:45;;;;;;;17.35;11.75;;;;;;;;;;5033833;28;20498;-57
2022/07/18 10:48:30;;;;;;;17.02;11.57;;;;;;;;;;5032185;28;20033;-56
2022/07/18 10:51:01;;;;;;;17.92;12.23;;;;;;;;;;5034033;28;20049;-51
2022/07/18 10:53:46;;;;;;;16.75;12.20;;;;;;;;;;5034071;28;20030;-50
2022/07/18 10:56:12;;;;;;;15.60;11.60;;;;;;;;;;5033584;28;20462;-51
2022/07/18 10:58:40;;;;;;;18.35;11.70;;;;;;;;;;5033462;28;20028;-50
2022/07/18 11:01:08;;;;;;;17.98;11.95;;;;;;;;;;5033932;28;20534;-52
2022/07/18 11:03:34;;;;;;;16.38;11.63;;;;;;;;;;5033704;28;20036;-50
2022/07/18 11:06:00;;;;;;;17.45;11.65;;;;;;;;;;5033594;28;20017;-51
2022/07/18 11:08:28;;;;;;;17.02;11.90;;;;;;;;;;5033333;28;20492;-53
2022/07/18 11:10:55;;;;;;;17.83;12.00;;;;;;;;;;5033184;28;20096;-49
2022/07/18 11:13:34;;;;;;;18.90;12.45;;;;;;;;;;5033020;28;20032;-52
2022/07/18 11:16:05;;;;;;;20.67;12.40;;;;;;;;;;5032697;28;20207;-54
2022/07/18 11:18:51;;;;;;;16.60;12.50;;;;;;;;;;5032827;28;20022;-55
2022/07/18 11:21:20;;;;;;;16.30;12.43;;;;;;;;;;5031645;28;20033;-55
2022/07/18 11:23:48;;;;;;;19.52;13.45;;;;;;;;;;5033218;28;20049;-54
2022/07/18 11:26:18;;;;;;;19.92;12.65;;;;;;;;;;5033033;28;20029;-51
2022/07/18 11:28:44;;;;;;;19.33;13.55;;;;;;;;;;5031457;28;20543;-54
2022/07/18 11:31:11;;;;;;;16.30;12.60;;;;;;;;;;5033449;28;20083;-52
2022/07/18 11:33:44;;;;;;;18.15;12.68;;;;;;;;;;5033123;28;20025;-54
2022/07/18 11:36:11;;;;;;;16.58;12.65;;;;;;;;;;5032250;28;20029;-52
2022/07/18 11:38:38;;;;;;;17.85;13.63;;;;;;;;;;5032866;28;20474;-52
2022/07/18 11:41:05;;;;;;;18.20;13.50;;;;;;;;;;5032460;28;20552;-51
2022/07/18 11:43:31;;;;;;;16.35;12.48;;;;;;;;;;4336325;28;9999922;-53
2022/07/18 11:46:00;;;;;;;19.38;12.85;;;;;;;;;;5029261;28;20375;-54
2022/07/18 11:48:26;;;;;;;17.95;13.25;;;;;;;;;;5016065;28;20026;-64
2022/07/18 11:50:52;;;;;;;16.38;12.80;;;;;;;;;;5012812;28;20032;-56
2022/07/18 11:53:18;;;;;;;18.38;12.73;;;;;;;;;;5012809;28;20018;-57
2022/07/18 11:55:44;;;;;;;18.25;12.85;;;;;;;;;;5012886;28;20024;-58
2022/07/18 11:58:12;;;;;;;17.27;12.93;;;;;;;;;;5011746;28;20022;-58
2022/07/18 12:00:38;;;;;;;16.75;12.48;;;;;;;;;;5012696;28;20022;-58
2022/07/18 12:03:13;;;;;;;17.80;13.63;;;;;;;;;;5012819;28;20030;-59
2022/07/18 12:05:41;;;;;;;18.15;12.65;;;;;;;;;;5018822;28;20028;-62
2022/07/18 12:08:26;;;;;;;16.30;13.40;;;;;;;;;;5032112;28;20028;-62
2022/07/18 12:11:07;;;;;;;19.20;13.10;;;;;;;;;;5032472;28;20105;-53
2022/07/18 12:13:43;;;;;;;16.50;12.88;;;;;;;;;;5032585;28;20029;-56
2022/07/18 12:16:21;;;;;;;16.40;12.93;;;;;;;;;;5032390;28;20029;-53
2022/07/18 12:18:54;;;;;;;16.20;12.98;;;;;;;;;;5031952;28;20085;-54
2022/07/18 12:21:20;;;;;;;17.52;12.77;;;;;;;;;;5032874;28;20486;-53
2022/07/18 12:23:46;;;;;;;17.63;13.35;;;;;;;;;;5032469;28;20420;-55
2022/07/18 12:26:31;;;;;;;16.38;12.82;;;;;;;;;;5032113;28;20049;-52
2022/07/18 12:29:10;;;;;;;18.88;13.52;;;;;;;;;;5031490;28;20034;-54
2022/07/18 12:31:37;;;;;;;18.60;12.52;;;;;;;;;;5032449;28;20018;-53
2022/07/18 12:34:13;;;;;;;16.17;12.47;;;;;;;;;;5032980;28;20026;-51
2022/07/18 12:37:11;;;;;;;17.92;13.45;;;;;;;;;;5032484;28;20028;-57
2022/07/18 12:39:37;;;;;;;17.65;12.95;;;;;;;;;;5019798;28;20410;-56
2022/07/18 12:42:06;;;;;;;16.52;12.60;;;;;;;;;;5032125;28;20029;-56
2022/07/18 12:44:32;;;;;;;17.55;12.90;;;;;;;;;;5032173;28;20371;-51
2022/07/18 12:46:58;;;;;;;17.88;12.82;;;;;;;;;;5031742;28;20026;-56
2022/07/18 12:49:24;;;;;;;15.90;12.23;;;;;;;;;;5002507;23;20057;-52
2022/07/18 12:51:50;;;;;;;18.55;13.05;;;;;;;;;;4952698;29;20097;-53
2022/07/18 12:54:17;;;;;;;18.83;12.55;;;;;;;;;;4953895;28;20123;-56
2022/07/18 12:56:43;;;;;;;19.67;12.90;;;;;;;;;;4954138;28;20440;-51
2022/07/18 12:59:09;;;;;;;19.20;12.77;;;;;;;;;;4953884;28;20098;-51
2022/07/18 13:01:35;;;;;;;17.58;12.65;;;;;;;;;;4954139;28;20079;-54
2022/07/18 13:04:03;;;;;;;18.58;12.75;;;;;;;;;;4952739;28;20509;-51
2022/07/18 13:06:29;;;;;;;18.17;12.70;;;;;;;;;;4954030;28;20023;-50
2022/07/18 13:08:55;;;;;;;16.83;12.65;;;;;;;;;;4953644;28;20027;-52
2022/07/18 13:11:21;;;;;;;18.23;13.20;;;;;;;;;;4953861;29;20032;-52
2022/07/18 13:13:47;;;;;;;17.80;13.15;;;;;;;;;;4962387;28;20073;-54
2022/07/18 13:16:13;;;;;;;17.52;12.95;;;;;;;;;;4971583;28;20067;-56
2022/07/18 13:18:39;;;;;;;16.55;13.20;;;;;;;;;;4971002;28;20034;-55
2022/07/18 13:21:06;;;;;;;16.40;12.77;;;;;;;;;;4973195;28;20027;-51
2022/07/18 13:23:32;;;;;;;17.65;13.02;;;;;;;;;;4972901;28;20049;-57
2022/07/18 13:25:58;;;;;;;18.52;13.02;;;;;;;;;;4972243;28;20054;-58
2022/07/18 13:28:27;;;;;;;17.80;12.95;;;;;;;;;;4972442;28;20090;-60
2022/07/18 13:30:53;;;;;;;16.05;13.25;;;;;;;;;;4972778;28;20025;-54
2022/07/18 13:33:19;;;;;;;17.65;13.07;;;;;;;;;;4971695;28;20058;-56
2022/07/18 13:35:45;;;;;;;18.95;13.40;;;;;;;;;;4954789;28;20039;-56
2022/07/18 13:38:12;;;;;;;15.52;12.75;;;;;;;;;;4952835;29;20033;-56
2022/07/18 13:40:38;;;;;;;17.42;13.25;;;;;;;;;;4953466;28;20436;-55
2022/07/18 13:43:04;;;;;;;17.27;13.02;;;;;;;;;;4953435;29;20085;-54
2022/07/18 13:45:30;;;;;;;17.27;13.50;;;;;;;;;;4953235;29;20110;-50
2022/07/18 13:47:56;;;;;;;16.13;13.05;;;;;;;;;;4952845;29;20031;-63
2022/07/18 13:50:22;;;;;;;21.30;13.68;;;;;;;;;;4953325;29;20035;-57
2022/07/18 13:52:48;;;;;;;16.92;12.95;;;;;;;;;;4953108;28;20538;-55
2022/07/18 13:55:14;;;;;;;16.30;12.93;;;;;;;;;;4953441;29;20062;-57
2022/07/18 13:57:57;;;;;;;16.23;13.25;;;;;;;;;;4824392;28;10000324;-56
2022/07/18 14:00:23;;;;;;;16.23;13.10;;;;;;;;;;4933804;29;20241;-56
2022/07/18 14:02:49;;;;;;;16.23;12.90;;;;;;;;;;4935174;29;20039;-55
2022/07/18 14:05:15;;;;;;;16.77;12.80;;;;;;;;;;4938043;28;20019;-54
2022/07/18 14:07:42;;;;;;;17.05;12.73;;;;;;;;;;4954041;28;20116;-57
2022/07/18 14:10:08;;;;;;;16.90;13.23;;;;;;;;;;4952275;28;20762;-57
2022/07/18 14:12:34;;;;;;;16.35;12.55;;;;;;;;;;4953587;29;20106;-53
2022/07/18 14:15:00;;;;;;;15.95;12.20;;;;;;;;;;4953880;28;20174;-57
2022/07/18 14:17:26;;;;;;;17.20;13.05;;;;;;;;;;4953732;29;20032;-55
2022/07/18 14:19:52;;;;;;;19.02;13.15;;;;;;;;;;4952863;29;20562;-56
2022/07/18 14:22:18;;;;;;;18.65;13.23;;;;;;;;;;4953197;28;20031;-52